Station: Delamere

  Atmospheric Gas Attenuation - ITU Rec 676-11   --------------- db/100km ---------------
Date Time Temp RH % AH g/m3 Dew Point Wind Direction Speed kph Gust kph Barometer mB Rainfall Since 9am 24GHz 47GHz 76GHz 122GHz 134GHz 241GHz
11 21:40 27.1 62 16.05 19.2 0 0 1009.8 0 34.5 33.7 61.9 163.5 175.6 609.7
11 21:30 27.3 61 15.96 19.1 0 0 1009.6 0 34.3 33.4 61.3 162.0 173.8 603.7
11 21:20 27.4 62 16.31 19.5 0 0 1009.8 0 35.1 34.0 62.7 165.8 178.5 619.9
11 21:10 27.7 59 15.78 19 0 0 1009.7 0 33.9 33.0 60.3 159.2 170.5 592.1
11 21:00 27.9 61 16.5 19.9 2 6 1009.4 0 35.4 34.1 63.1 166.8 179.9 624.9
11 20:50 28.1 58 15.86 19.1 4 6 1009.5 0 34.1 33.0 60.3 159.3 170.7 592.8
11 20:40 28.4 56 15.57 18.8 6 6 1009.4 0 33.4 32.4 58.8 155.5 166.1 576.8
11 20:30 28.8 58 16.48 19.7 2 6 1009.1 0 35.3 33.7 62.3 164.6 177.5 616.6
11 20:20 28.9 57 16.29 19.5 0 4 1009.1 0 34.9 33.4 61.4 162.3 174.7 606.8
11 20:10 29.1 54 15.6 19.1 2 4 1009.1 0 33.4 32.1 58.4 154.4 164.9 572.9
11 20:00 29.1 51 14.73 18.2 6 7 1008.8 0 31.6 30.7 54.9 145.1 153.5 533.0
11 19:50 29.3 51 14.89 18.1 6 6 1008.9 0 31.9 30.9 55.4 146.4 155.2 538.9
11 19:40 29.5 53 15.65 18.9 4 6 1008.8 0 33.5 32.1 58.3 154.1 164.7 572.2
11 19:30 29.9 48 14.48 18 6 7 1008.5 0 31.0 30.0 53.4 141.0 148.7 516.4
11 19:20 30.1 46 14.03 17.5 6 7 1008.5 0 30.1 29.3 51.5 136.0 142.6 495.2
11 19:10 30.5 44 13.71 17.2 6 7 1008.4 0 29.4 28.6 50.0 132.1 137.9 478.8
11 19:00 30.9 43 13.69 17.2 6 7 1008.1 0 29.3 28.5 49.7 131.2 137.0 475.5
11 18:50 31.3 41 13.34 16.8 6 7 1008.3 0 28.6 27.8 48.2 127.1 132.0 458.3
11 18:40 31.7 40 13.29 16.8 6 6 1008.1 0 28.4 27.6 47.7 126.0 130.8 453.9
11 18:30 32.2 38 12.97 16.1 7 9 1007.9 0 27.7 27.0 46.3 122.1 126.1 437.7
11 18:20 32.8 36 12.69 15.8 7 9 1008 0 27.1 26.4 44.9 118.5 121.9 423.1
11 18:10 33.4 34 12.37 15.8 7 9 1007.9 0 26.4 25.8 43.5 114.7 117.3 407.1
11 18:00 34 33 12.39 15.5 9 15 1007.6 0 26.4 25.6 43.2 114.0 116.7 404.8
11 17:50 34.3 31 11.82 15.2 13 15 1007.8 0 25.2 24.8 41.1 108.4 109.9 381.1
11 17:40 34.6 31 12.01 15 13 15 1007.7 0 25.6 24.9 41.6 109.7 111.6 387.1
11 17:30 34.9 29 11.41 14.7 13 15 1007.4 0 24.4 24.0 39.5 103.9 104.5 362.5
11 17:20 35.1 29 11.53 14.9 11 13 1007.6 0 24.6 24.2 39.8 104.8 105.6 366.3
11 17:10 35.2 30 11.99 15.5 9 11 1007.5 0 25.5 24.8 41.2 108.7 110.5 383.4
11 17:00 35.2 30 11.99 15 13 20 1007.3 0 25.5 24.7 41.2 108.7 110.5 383.3
11 16:50 35.1 29 11.53 14.9 11 15 1007.5 0 24.6 24.2 39.8 104.8 105.6 366.2
11 16:40 35.2 30 11.99 15.5 11 15 1007.5 0 25.5 24.8 41.2 108.7 110.5 383.4
11 16:30 34.1 31 11.7 14.6 11 15 1007.4 0 25.0 24.6 40.8 107.5 108.8 377.3
11 16:20 34.3 29 11.06 13.7 11 13 1007.7 0 23.7 23.7 38.6 101.6 101.5 351.9
11 16:10 34.5 29 11.17 13.9 15 19 1007.6 0 23.9 23.8 38.9 102.3 102.5 355.2
11 16:00 34.9 28 11.02 14.2 19 28 1007.4 0 23.6 23.5 38.2 100.5 100.3 347.8
11 15:50 36.4 26 11.06 13.8 20 26 1007.5 0 23.6 23.2 37.6 99.1 98.9 343.0
11 15:40 36.1 28 11.73 14.7 15 15 1007.5 0 25.0 24.2 39.9 105.3 106.5 369.4
11 15:30 35.9 27 11.19 14.5 9 15 1007.4 0 23.9 23.5 38.3 100.8 100.9 349.9
11 15:20 35.1 29 11.53 14.9 6 6 1007.6 0 24.6 24.2 39.8 104.8 105.6 366.3
11 15:10 36.3 31 13.12 16.5 9 13 1007.7 0 27.8 26.0 44.5 117.4 121.5 422.0
11 15:00 36.2 30 12.63 15.9 13 22 1007.7 0 26.8 25.4 42.9 113.1 116.2 403.4
11 14:50 36 31 12.91 16.7 11 15 1007.9 0 27.4 25.8 44.0 116.0 119.6 415.4
11 14:40 35.4 33 13.33 17.1 11 13 1008.1 0 28.3 26.6 45.7 120.7 125.3 435.2
11 14:30 34.9 31 12.2 15.7 13 20 1008 0 26.0 25.1 42.1 111.1 113.3 393.1
11 14:20 35 30 11.87 15.3 7 9 1008.3 0 25.3 24.7 41.0 108.0 109.5 379.9
11 14:10 35.6 28 11.43 14.8 6 7 1008.3 0 24.4 23.9 39.2 103.3 103.9 360.5
11 14:00 36.1 31 12.98 16.3 13 22 1008.2 0 27.5 25.9 44.2 116.5 120.3 417.7
11 13:50 35.8 30 12.37 16 15 17 1008.5 0 26.3 25.1 42.3 111.4 113.9 395.5
11 13:40 36 34 14.16 17.7 15 15 1008.6 0 29.9 27.6 48.3 127.6 133.9 465.5
11 13:30 34.6 33 12.78 16.4 9 17 1008.5 0 27.2 26.0 44.3 116.8 120.3 417.6
11 13:20 35.1 30 11.93 15.4 11 15 1008.8 0 25.4 24.7 41.1 108.4 110.1 381.9
11 13:10 35.1 34 13.52 16.9 11 15 1009 0 28.7 27.0 46.6 123.0 128.0 444.8
11 13:00 34.3 34 12.97 16.6 11 17 1009 0 27.6 26.4 45.1 119.1 123.0 426.9
11 12:50 34.4 34 13.03 16.3 11 15 1009.3 0 27.7 26.5 45.3 119.5 123.5 428.9
11 12:40 35.6 32 13.06 16.8 4 7 1009.4 0 27.7 26.2 44.8 118.1 122.0 423.8
11 12:30 35.2 34 13.59 17 9 17 1009.4 0 28.8 27.0 46.8 123.6 128.7 447.2
11 12:20 34.6 33 12.78 16 11 13 1009.8 0 27.2 26.1 44.4 117.0 120.4 418.0
11 12:10 35.4 32 12.92 16.2 4 9 1009.9 0 27.4 26.1 44.4 117.1 120.8 419.5
11 12:00 35.7 32 13.13 16.9 9 13 1009.9 0 27.8 26.3 45.0 118.6 122.7 426.2
11 11:50 34.8 33 12.92 16.6 11 13 1010.2 0 27.5 26.2 44.7 118.0 121.7 422.7
11 11:40 35.2 34 13.59 17 7 11 1010.2 0 28.8 27.1 46.9 123.7 128.8 447.4
11 11:30 34.3 36 13.73 17.1 9 20 1010.1 0 29.2 27.5 47.9 126.4 131.9 458.1
11 11:20 34.5 36 13.87 17.3 7 9 1010.3 0 29.4 27.7 48.3 127.4 133.2 462.8
11 11:10 34.3 36 13.73 17.1 6 7 1010.4 0 29.2 27.6 47.9 126.4 131.9 458.2
11 11:00 33.7 36 13.3 16.6 9 15 1010.4 0 28.3 27.1 46.7 123.2 127.9 444.0
11 10:50 34.3 37 14.11 17.9 11 13 1010.6 0 29.9 28.1 49.3 130.1 136.4 474.0
11 10:40 33.2 36 12.96 16.5 11 13 1010.6 0 27.7 26.8 45.8 120.8 124.7 432.9
11 10:30 32.9 39 13.82 17.1 13 20 1010.4 0 29.4 28.1 49.1 129.5 135.3 470.0
11 10:20 33.2 39 14.04 17.4 17 19 1010.4 0 29.9 28.4 49.7 131.2 137.5 477.5
11 10:10 32.9 42 14.88 18.3 13 15 1010.3 0 31.6 29.7 53.0 140.0 148.2 515.1
11 10:00 33.1 42 15.04 18.5 13 17 1010.2 0 31.9 29.9 53.5 141.2 149.8 520.7
11 09:50 32.8 43 15.15 18.9 11 13 1010.4 0 32.2 30.2 54.1 142.9 151.8 527.5
11 09:40 31.2 48 15.53 18.9 9 11 1010.5 0 33.1 31.3 56.7 149.8 159.8 555.3
11 09:30 31.4 48 15.7 19.1 7 11 1010.2 0 33.4 31.5 57.2 151.1 161.6 561.4
11 09:20 30.8 51 16.15 19.5 7 9 1010.3 0 34.4 32.5 59.4 157.1 168.7 586.3
11 09:10 30.1 56 17.08 20.4 7 7 1010.2 0 36.4 34.3 63.8 168.7 182.8 635.2
11 09:00 28.9 61 17.43 20.6 0 0 1010.1 0 37.3 35.3 66.3 175.3 190.5 662.0
11 08:50 27.4 65 17.1 20.2 0 4 1010.2 0 36.7 35.4 66.1 174.9 189.6 658.7
11 08:40 27 66 16.99 20.3 6 6 1010.2 0 36.5 35.4 66.0 174.5 189.0 656.6
11 08:30 26 71 17.29 20.3 7 9 1009.9 0 37.3 36.3 68.2 180.3 195.9 680.2
11 08:20 26 72 17.53 20.6 7 7 1010.2 0 37.8 36.7 69.3 183.2 199.4 692.6
11 08:10 25.5 73 17.28 20.3 7 9 1010.1 0 37.3 36.5 68.6 181.4 197.0 684.3
11 08:00 25 77 17.72 20.7 0 0 1009.8 0 38.3 37.5 71.0 187.8 204.8 711.3
11 07:50 24.2 78 17.16 20.1 0 2 1009.7 0 37.1 36.8 69.2 183.0 198.6 689.6
11 07:40 23.4 84 17.66 20.5 0 0 1009.7 0 38.3 38.1 72.2 191.1 208.3 723.3
11 07:30 23.2 85 17.67 20.5 0 0 1009.5 0 38.3 38.2 72.5 191.7 209.0 725.6
11 07:20 22.9 86 17.57 20.4 0 0 1009.6 0 38.1 38.2 72.3 191.2 208.3 723.2
11 07:10 22.7 85 17.17 20 0 0 1009.5 0 37.3 37.5 70.6 186.7 202.8 703.8
11 07:00 22.7 87 17.58 20.4 0 0 1009.3 0 38.2 38.3 72.5 191.8 209.0 725.5
11 06:50 22.6 84 16.87 19.8 0 0 1009.5 0 36.7 37.0 69.3 183.3 198.5 688.9
11 06:40 22.5 85 16.98 19.9 6 6 1009.4 0 36.9 37.2 69.9 184.8 200.4 695.6
11 06:30 22.9 83 16.96 19.9 0 0 1009.2 0 36.8 37.0 69.4 183.6 199.0 690.8
11 06:20 23 84 17.26 20.1 0 0 1009.3 0 37.5 37.5 70.7 187.1 203.3 705.7
11 06:10 23.1 83 17.16 20.1 0 0 1009.3 0 37.3 37.3 70.2 185.6 201.5 699.5
11 06:00 23.2 82 17.05 20 0 0 1009 0 37.0 37.0 69.6 183.9 199.5 692.6
11 05:50 23.4 82 17.24 20.1 0 0 1009.1 0 37.4 37.3 70.3 185.8 201.9 700.8
11 05:40 23.6 81 17.23 20.1 6 6 1009 0 37.4 37.2 70.0 185.2 201.2 698.4
11 04:50 23.9 79 17.09 20 6 6 1008.8 0 37.0 36.8 69.1 182.7 198.2 688.3
11 04:40 24 78 16.97 19.9 6 7 1008.8 0 36.8 36.5 68.5 181.0 196.2 681.2
11 04:30 24 78 16.97 19.9 7 11 1008.6 0 36.8 36.5 68.5 181.0 196.2 681.1

Last Refresh: 11-Apr-2021 21:49:28

Bureau of Meteorology